Bangor, ME

5:29 AM EST on February 01, 2015 (GMT -0500)
Essex St Hill | Change Station
CLOSE
Current Station
Personal Weather Station
Location: Bangor, ME
Elevation: 208 ft
Nearby Weather Stations
Active Advisory: Winter Storm Watch

Elev 208 ft 44.82 °N, 68.77 °W | Updated 0 second ago

Clear
Clear
5.9 °F
Feels Like -4 °F
N
5.0
Wind Variable Wind from WNW
Gusts 14.0 mph

Today
High -- | Low -- °F
--% Chance of Precip.
Yesterday
High -- | Low -- °F
Precip. -- in
6:54 AM 4:43 PM
Waxing Gibbous, 94% visible
Pressure 29.92 in
Visibility 10.0 miles
Clouds Clear
Windchill -4 °F
Dew Point -4 °F
Humidity 62%
Rainfall 0.00 in
Snow Depth Not available.
UV 0 out of 12
Pollen .10 out of 12
Air Quality Not available.
Flu Activity Not available.
METAR KBGR 010953Z 30013G20KT 10SM CLR M14/M19 A2990 RMK AO2 SLP131 T11391194

More Conditions Fewer Conditions

Pressure 29.92 in
Visibility 10.0 miles
Clouds Clear
Windchill -4 °F
Dew Point -4 °F
Humidity 62%
Rainfall 0.00 in
Snow Depth Not available.
UV 0 out of 12
Pollen .10 out of 12
Air Quality Not available.
Flu Activity Not available.
METAR KBGR 010953Z 30013G20KT 10SM CLR M14/M19 A2990 RMK AO2 SLP131 T11391194

More Conditions Fewer Conditions

10-Day Weather Forecast

Almanac

Astronomy

Feb. 01, 2015 Rise Set
Actual Time
Civil Twilight
Nautical Twilight
Astronomical Twilight
Moon
Length of Visible Light
Length of Day
Tomorrow will be .
, % of the Moon is Illuminated

Today's Extremes

State Highs State Lows

Community

WunderPhotos

Upload Photos

1,792,325 photos uploaded!

WunderBlogs® & News

Nearby

Air Quality

  Air Quality AQ Index Pollutant
Not available.

Snow Depth

Station Depth Elevation

Earthquake Activity

City Distance Mag. Time & Date
Minimum magnitude displayed is 2.5.

Coastal Water Temperatures

Place Temperature

Nearby Weather Stations